This is the latest recevied weather packets stored in our database for station/object NN5DX-12. If no packets are shown the sender has not sent any weather packets the latest 1 day(s).
| Time | Temp. | Humidity | Pressure | Rain* | Wind** | Luminosity | Snow |
|---|---|---|---|---|---|---|---|
| 1778099716 | -0.56° C | 86% | 1020.3 hPa | 0 mm | - | - | - |
| 1778099416 | -1.11° C | 83% | 1020.2 hPa | 0 mm | - | - | - |
| 1778098816 | -1.67° C | 86% | 1019.7 hPa | 0 mm | - | - | - |
| 1778098516 | -1.67° C | 85% | 1019.8 hPa | 0 mm | - | - | - |
| 1778098216 | -2.22° C | 88% | 1019.8 hPa | 0 mm | - | - | - |
| 1778097016 | -2.22° C | 84% | 1019.6 hPa | 0 mm | - | - | - |
| 1778096719 | -2.22° C | 85% | 1019.8 hPa | 0 mm | - | - | - |
| 1778095818 | -1.67° C | 83% | 1019.8 hPa | 0 mm | - | - | - |
| 1778095518 | -1.67° C | 85% | 1019.7 hPa | 0 mm | - | - | - |
| 1778094618 | -1.67° C | 83% | 1019.8 hPa | 0 mm | - | - | - |
| 1778094018 | -1.67° C | 83% | 1019.9 hPa | 0 mm | - | - | - |
| 1778093418 | -1.67° C | 81% | 1019.8 hPa | 0 mm | - | - | - |
| 1778091618 | -2.22° C | 83% | 1020.1 hPa | 0 mm | - | - | - |
| 1778091318 | -2.22° C | 83% | 1020.2 hPa | 0 mm | - | - | - |
| 1778090418 | -2.78° C | 83% | 1019.6 hPa | 0 mm | - | - | - |
| 1778087418 | -3.89° C | 88% | 1018.6 hPa | 0 mm | - | - | - |
| 1778087116 | -3.33° C | 88% | 1018.7 hPa | 0 mm | - | - | - |
| 1778083518 | -3.89° C | 89% | 1017.5 hPa | 0 mm | - | - | - |
| 1778081117 | -4.44° C | 91% | 1017.2 hPa | 0 mm | - | - | - |
| 1778079018 | -4.44° C | 92% | 1016.7 hPa | 0 mm | - | - | - |
| 1778077218 | -4.44° C | 92% | 1016.4 hPa | 0 mm | - | - | - |
| 1778076017 | -4.44° C | 93% | 1016.4 hPa | 0 mm | - | - | - |
| 1778075417 | -4.44° C | 93% | 1016.2 hPa | 0 mm | - | - | - |
| 1778074518 | -5° C | 94% | 1016.1 hPa | 0 mm | - | - | - |
| 1778073017 | -5° C | 94% | 1016.3 hPa | 0 mm | - | - | - |
* Rain latest hour (hover to see other rain measurements)
** Current wind speed in m/s (hover to see current wind gust speed)